createdAt,value
2019-05-11T00:00:19.942Z,997.10
2019-05-11T00:01:19.972Z,997.06
2019-05-11T00:02:19.965Z,997.02
2019-05-11T00:03:19.992Z,996.98
2019-05-11T00:04:20.008Z,996.93
2019-05-11T00:05:20.016Z,996.95
2019-05-11T00:06:20.087Z,996.95
2019-05-11T00:07:20.051Z,996.92
2019-05-11T00:08:20.086Z,996.88
2019-05-11T00:09:20.087Z,996.86
2019-05-11T00:10:23.370Z,996.84
2019-05-11T00:11:20.135Z,996.85
2019-05-11T00:12:20.135Z,996.81
2019-05-11T00:13:20.153Z,996.83
2019-05-11T00:14:20.174Z,996.83
2019-05-11T00:15:20.191Z,996.79
2019-05-11T00:16:20.204Z,996.78
2019-05-11T00:17:20.217Z,996.75
2019-05-11T00:18:20.237Z,996.73
2019-05-11T00:19:20.249Z,996.71
2019-05-11T00:20:20.319Z,996.68
2019-05-11T00:21:20.290Z,996.65
2019-05-11T00:22:20.303Z,996.65
2019-05-11T00:23:20.315Z,996.64
2019-05-11T00:24:20.334Z,996.60
2019-05-11T00:25:20.350Z,996.60
2019-05-11T00:26:20.367Z,996.56
2019-05-11T00:27:20.379Z,996.57
2019-05-11T00:28:20.396Z,996.53
2019-05-11T00:29:20.418Z,996.50
2019-05-11T00:30:20.434Z,996.51
2019-05-11T00:31:20.450Z,996.50
2019-05-11T00:32:22.798Z,996.44
2019-05-11T00:33:20.482Z,996.45
2019-05-11T00:34:20.497Z,996.43
2019-05-11T00:35:20.513Z,996.46
2019-05-11T00:36:20.532Z,996.42
2019-05-11T00:37:20.546Z,996.35
2019-05-11T00:38:20.561Z,996.38
2019-05-11T00:39:20.578Z,996.33
2019-05-11T00:40:20.596Z,996.34
2019-05-11T00:41:20.616Z,996.37
2019-05-11T00:42:20.639Z,996.37
2019-05-11T00:43:20.641Z,996.35
2019-05-11T00:44:20.686Z,996.35
2019-05-11T00:45:20.678Z,996.40
2019-05-11T00:46:20.771Z,996.37
2019-05-11T00:47:20.713Z,996.41
2019-05-11T00:48:20.735Z,996.44
2019-05-11T00:49:20.747Z,996.45
2019-05-11T00:50:20.756Z,996.38
2019-05-11T00:51:20.785Z,996.33
2019-05-11T00:52:20.790Z,996.33
2019-05-11T00:53:20.803Z,996.31
2019-05-11T00:54:20.819Z,996.32
2019-05-11T00:55:20.836Z,996.32
2019-05-11T00:56:20.859Z,996.35
2019-05-11T00:57:20.878Z,996.36
2019-05-11T00:58:20.885Z,996.39
2019-05-11T00:59:22.110Z,996.45
2019-05-11T01:00:20.920Z,996.45
2019-05-11T01:01:20.938Z,996.44
2019-05-11T01:02:20.953Z,996.41
2019-05-11T01:03:20.967Z,996.33
2019-05-11T01:04:20.989Z,996.28
2019-05-11T01:05:21.017Z,996.32
2019-05-11T01:06:21.128Z,996.38
2019-05-11T01:07:21.034Z,996.40
2019-05-11T01:08:21.053Z,996.43
2019-05-11T01:09:21.126Z,996.44
2019-05-11T01:10:25.517Z,996.43
2019-05-11T01:11:21.099Z,996.46
2019-05-11T01:12:21.110Z,996.46
2019-05-11T01:13:21.158Z,996.49
2019-05-11T01:14:21.146Z,996.50
2019-05-11T01:15:21.165Z,996.50
2019-05-11T01:16:21.175Z,996.47
2019-05-11T01:17:21.200Z,996.46
2019-05-11T01:18:21.208Z,996.44
2019-05-11T01:19:21.234Z,996.46
2019-05-11T01:20:21.253Z,996.44
2019-05-11T01:21:21.260Z,996.37
2019-05-11T01:22:21.276Z,996.31
2019-05-11T01:23:21.296Z,996.32
2019-05-11T01:24:21.312Z,996.28
2019-05-11T01:25:21.329Z,996.23
2019-05-11T01:26:21.338Z,996.23
2019-05-11T01:27:21.357Z,996.27
2019-05-11T01:28:21.373Z,996.26
2019-05-11T01:29:21.390Z,996.25
2019-05-11T01:30:21.402Z,996.26
2019-05-11T01:31:21.418Z,996.24
2019-05-11T01:32:21.445Z,996.24
2019-05-11T01:33:21.450Z,996.27
2019-05-11T01:34:21.514Z,996.26
2019-05-11T01:35:21.494Z,996.25
2019-05-11T01:36:21.500Z,996.22
2019-05-11T01:37:21.520Z,996.26
2019-05-11T01:38:21.537Z,996.30
2019-05-11T01:39:21.569Z,996.27
2019-05-11T01:40:21.574Z,996.28
2019-05-11T01:41:21.586Z,996.26
2019-05-11T01:42:21.594Z,996.33
2019-05-11T01:43:21.611Z,996.28
2019-05-11T01:44:21.633Z,996.31
2019-05-11T01:45:21.647Z,996.30
2019-05-11T01:46:21.662Z,996.32
2019-05-11T01:47:21.683Z,996.33
2019-05-11T01:48:21.691Z,996.31
2019-05-11T01:49:21.713Z,996.26
2019-05-11T01:50:21.728Z,996.26
2019-05-11T01:51:21.743Z,996.23
2019-05-11T01:52:21.755Z,996.23
2019-05-11T01:53:21.777Z,996.21
2019-05-11T01:54:21.789Z,996.23
2019-05-11T01:55:21.805Z,996.23
2019-05-11T01:56:21.821Z,996.24
2019-05-11T01:57:21.842Z,996.23
2019-05-11T01:58:21.853Z,996.24
2019-05-11T01:59:21.872Z,996.23
2019-05-11T02:00:21.888Z,996.19
2019-05-11T02:01:21.912Z,996.21
2019-05-11T02:02:21.920Z,996.22
2019-05-11T02:03:21.931Z,996.20
2019-05-11T02:04:21.953Z,996.17
2019-05-11T02:05:21.973Z,996.11
2019-05-11T02:06:21.981Z,996.14
2019-05-11T02:07:22.002Z,996.16
2019-05-11T02:08:22.025Z,996.14
2019-05-11T02:09:22.030Z,996.14
2019-05-11T02:10:22.050Z,996.14
2019-05-11T02:11:22.066Z,996.14
2019-05-11T02:12:22.082Z,996.13
2019-05-11T02:13:22.094Z,996.11
2019-05-11T02:14:22.114Z,996.13
2019-05-11T02:15:22.141Z,996.11
2019-05-11T02:16:22.145Z,996.08
2019-05-11T02:17:22.168Z,996.13
2019-05-11T02:18:22.172Z,996.05
2019-05-11T02:19:22.197Z,996.08
2019-05-11T02:20:22.213Z,996.08
2019-05-11T02:21:22.227Z,996.10
2019-05-11T02:22:22.246Z,996.11
2019-05-11T02:23:22.260Z,996.14
2019-05-11T02:24:22.276Z,996.11
2019-05-11T02:25:22.293Z,996.10
2019-05-11T02:26:22.309Z,996.13
2019-05-11T02:27:22.328Z,996.09
2019-05-11T02:28:22.340Z,996.11
2019-05-11T02:29:22.359Z,996.08
2019-05-11T02:30:22.381Z,996.04
2019-05-11T02:31:22.392Z,996.04
2019-05-11T02:32:22.405Z,996.04
2019-05-11T02:33:22.425Z,996.07
2019-05-11T02:34:22.443Z,996.10
2019-05-11T02:35:22.456Z,996.05
2019-05-11T02:36:22.478Z,996.03
2019-05-11T02:37:22.491Z,996.04
2019-05-11T02:38:22.504Z,996.04
2019-05-11T02:39:22.520Z,995.98
2019-05-11T02:40:22.533Z,996.00
2019-05-11T02:41:35.773Z,995.96
2019-05-11T02:42:22.581Z,995.95
2019-05-11T02:43:22.579Z,995.94
2019-05-11T02:44:22.598Z,995.94
2019-05-11T02:45:22.617Z,995.90
2019-05-11T02:46:22.634Z,995.91
2019-05-11T02:47:22.704Z,995.93
2019-05-11T02:48:22.668Z,995.96
2019-05-11T02:49:22.683Z,995.94
2019-05-11T02:50:22.699Z,995.96
2019-05-11T02:51:22.717Z,995.97
2019-05-11T02:52:22.738Z,995.94
2019-05-11T02:53:22.766Z,995.91
2019-05-11T02:54:22.761Z,995.91
2019-05-11T02:55:22.776Z,995.90
2019-05-11T02:56:22.792Z,995.83
2019-05-11T02:57:22.811Z,995.78
2019-05-11T02:58:22.830Z,995.79
2019-05-11T02:59:22.841Z,995.79
2019-05-11T03:00:22.899Z,995.77
2019-05-11T03:01:22.873Z,995.75
2019-05-11T03:02:22.886Z,995.76
2019-05-11T03:03:22.906Z,995.74
2019-05-11T03:04:22.923Z,995.73
2019-05-11T03:05:22.938Z,995.73
2019-05-11T03:06:22.956Z,995.74
2019-05-11T03:07:22.973Z,995.73
2019-05-11T03:08:22.984Z,995.72
2019-05-11T03:09:23.006Z,995.67
2019-05-11T03:10:23.128Z,995.63
2019-05-11T03:11:23.037Z,995.60
2019-05-11T03:12:23.048Z,995.60
2019-05-11T03:13:23.071Z,995.63
2019-05-11T03:14:23.090Z,995.59
2019-05-11T03:15:23.108Z,995.59
2019-05-11T03:16:23.117Z,995.61
2019-05-11T03:17:23.141Z,995.57
2019-05-11T03:18:23.148Z,995.59
2019-05-11T03:19:23.167Z,995.60
2019-05-11T03:20:23.184Z,995.62
2019-05-11T03:21:23.202Z,995.58
2019-05-11T03:22:23.223Z,995.58
2019-05-11T03:23:23.236Z,995.60
2019-05-11T03:24:24.171Z,995.61
2019-05-11T03:25:23.261Z,995.57
2019-05-11T03:26:23.277Z,995.61
2019-05-11T03:27:23.300Z,995.59
2019-05-11T03:28:23.317Z,995.55
2019-05-11T03:29:23.327Z,995.60
2019-05-11T03:30:23.358Z,995.59
2019-05-11T03:31:23.367Z,995.61
2019-05-11T03:32:23.414Z,995.59
2019-05-11T03:33:23.389Z,995.56
2019-05-11T03:34:23.407Z,995.59
2019-05-11T03:35:23.470Z,995.60
2019-05-11T03:36:23.438Z,995.67
2019-05-11T03:37:23.456Z,995.67
2019-05-11T03:38:23.500Z,995.65
2019-05-11T03:39:23.543Z,995.71
2019-05-11T03:40:23.737Z,995.73
2019-05-11T03:41:23.523Z,995.76
2019-05-11T03:42:23.542Z,995.73
2019-05-11T03:43:23.565Z,995.74
2019-05-11T03:44:23.574Z,995.73
2019-05-11T03:45:23.588Z,995.79
2019-05-11T03:46:23.600Z,995.75
2019-05-11T03:47:23.617Z,995.73
2019-05-11T03:48:23.631Z,995.74
2019-05-11T03:49:23.650Z,995.70
2019-05-11T03:50:23.664Z,995.70
2019-05-11T03:51:23.684Z,995.68
2019-05-11T03:52:23.699Z,995.70
2019-05-11T03:53:23.710Z,995.64
2019-05-11T03:54:23.728Z,995.64
2019-05-11T03:55:23.744Z,995.66
2019-05-11T03:56:23.762Z,995.66
2019-05-11T03:57:23.785Z,995.64
2019-05-11T03:58:26.077Z,995.62
2019-05-11T03:59:23.810Z,995.64
2019-05-11T04:00:23.824Z,995.63
2019-05-11T04:01:23.854Z,995.65
2019-05-11T04:02:23.857Z,995.65
2019-05-11T04:03:23.881Z,995.64
2019-05-11T04:04:23.890Z,995.63
2019-05-11T04:05:23.905Z,995.64
2019-05-11T04:06:23.926Z,995.63
2019-05-11T04:07:23.940Z,995.64
2019-05-11T04:08:23.952Z,995.63
2019-05-11T04:09:23.973Z,995.65
2019-05-11T04:10:25.302Z,995.68
2019-05-11T04:11:24.003Z,995.72
2019-05-11T04:12:33.986Z,995.73
2019-05-11T04:13:24.042Z,995.77
2019-05-11T04:14:24.048Z,995.79
2019-05-11T04:15:24.071Z,995.82
2019-05-11T04:16:24.080Z,995.83
2019-05-11T04:17:24.097Z,995.82
2019-05-11T04:18:24.114Z,995.82
2019-05-11T04:19:24.152Z,995.86
2019-05-11T04:20:24.155Z,995.87
2019-05-11T04:21:24.165Z,995.88
2019-05-11T04:22:24.177Z,995.88
2019-05-11T04:23:24.207Z,995.88
2019-05-11T04:24:24.214Z,995.88
2019-05-11T04:25:24.226Z,995.91
2019-05-11T04:26:24.252Z,995.93
2019-05-11T04:27:24.264Z,995.96
2019-05-11T04:28:24.276Z,995.96
2019-05-11T04:29:24.289Z,995.96
2019-05-11T04:30:24.305Z,995.98
2019-05-11T04:31:24.321Z,995.99
2019-05-11T04:32:24.343Z,995.99
2019-05-11T04:33:24.353Z,996.00
2019-05-11T04:34:24.384Z,996.00
2019-05-11T04:35:24.412Z,996.03
2019-05-11T04:36:24.541Z,996.05
2019-05-11T04:37:24.424Z,996.04
2019-05-11T04:38:24.442Z,996.03
2019-05-11T04:39:24.452Z,996.06
2019-05-11T04:40:24.469Z,996.06
2019-05-11T04:41:24.485Z,996.03
2019-05-11T04:42:24.503Z,996.05
2019-05-11T04:43:24.518Z,996.06
2019-05-11T04:44:24.533Z,996.01
2019-05-11T04:45:24.547Z,996.05
2019-05-11T04:46:24.609Z,996.04
2019-05-11T04:47:24.577Z,996.05
2019-05-11T04:48:24.598Z,996.06
2019-05-11T04:49:24.622Z,996.03
2019-05-11T04:50:24.685Z,996.05
2019-05-11T04:51:24.649Z,996.08
2019-05-11T04:52:24.664Z,996.12
2019-05-11T04:53:24.675Z,996.12
2019-05-11T04:54:24.725Z,996.11
2019-05-11T04:55:24.722Z,996.12
2019-05-11T04:56:24.811Z,996.10
2019-05-11T04:57:24.754Z,996.08
2019-05-11T04:58:24.757Z,996.06
2019-05-11T04:59:24.778Z,996.06
2019-05-11T05:00:24.793Z,996.11
2019-05-11T05:01:24.914Z,996.07
2019-05-11T05:02:27.268Z,996.09
2019-05-11T05:03:39.853Z,996.07
2019-05-11T05:04:24.908Z,996.07
2019-05-11T05:05:24.960Z,996.07
2019-05-11T05:06:24.940Z,996.08
2019-05-11T05:07:24.901Z,996.06
2019-05-11T05:08:26.378Z,996.03
2019-05-11T05:09:25.032Z,996.05
2019-05-11T05:10:24.956Z,996.06
2019-05-11T05:11:24.974Z,996.04
2019-05-11T05:12:24.990Z,996.03
2019-05-11T05:13:29.280Z,996.02
2019-05-11T05:14:25.027Z,996.03
2019-05-11T05:15:25.036Z,996.01
2019-05-11T05:16:25.065Z,996.01
2019-05-11T05:17:25.064Z,995.99
2019-05-11T05:18:25.090Z,996.00
2019-05-11T05:19:25.951Z,995.96
2019-05-11T05:20:25.115Z,995.97
2019-05-11T05:21:25.128Z,995.93
2019-05-11T05:22:27.894Z,995.91
2019-05-11T05:23:25.165Z,995.91
2019-05-11T05:24:25.183Z,995.92
2019-05-11T05:25:25.264Z,995.91
2019-05-11T05:26:25.231Z,995.91
2019-05-11T05:27:25.246Z,995.88
2019-05-11T05:28:25.264Z,995.89
2019-05-11T05:29:25.276Z,995.96
2019-05-11T05:30:25.280Z,995.96
2019-05-11T05:31:25.296Z,995.99
2019-05-11T05:32:25.314Z,995.95
2019-05-11T05:33:25.328Z,996.00
2019-05-11T05:34:25.348Z,996.02
2019-05-11T05:35:25.406Z,996.04
2019-05-11T05:36:25.376Z,996.05
2019-05-11T05:37:25.407Z,996.07
2019-05-11T05:38:25.418Z,996.06
2019-05-11T05:39:25.432Z,996.09
2019-05-11T05:40:25.452Z,996.05
2019-05-11T05:41:25.462Z,996.05
2019-05-11T05:42:25.495Z,996.05
2019-05-11T05:43:28.326Z,996.03
2019-05-11T05:44:27.655Z,996.02
2019-05-11T05:45:25.529Z,996.00
2019-05-11T05:46:25.554Z,996.00
2019-05-11T05:47:25.559Z,996.03
2019-05-11T05:48:25.579Z,996.04
2019-05-11T05:49:25.597Z,995.96
2019-05-11T05:50:25.616Z,995.94
2019-05-11T05:51:25.627Z,995.93
2019-05-11T05:52:25.644Z,995.93
2019-05-11T05:53:25.689Z,995.86
2019-05-11T05:54:25.678Z,995.87
2019-05-11T05:55:25.693Z,995.89
2019-05-11T05:56:25.711Z,995.85
2019-05-11T05:57:25.722Z,995.87
2019-05-11T05:58:25.744Z,995.86
2019-05-11T05:59:25.764Z,995.88
2019-05-11T06:00:25.776Z,995.85
2019-05-11T06:01:25.794Z,995.83
2019-05-11T06:02:25.806Z,995.77
2019-05-11T06:03:25.821Z,995.77
2019-05-11T06:04:25.858Z,995.79
2019-05-11T06:05:25.856Z,995.77
2019-05-11T06:06:25.877Z,995.84
2019-05-11T06:07:25.895Z,995.85
2019-05-11T06:08:25.910Z,995.85
2019-05-11T06:09:25.934Z,995.90
2019-05-11T06:10:25.941Z,995.89
2019-05-11T06:11:25.958Z,995.88
2019-05-11T06:12:25.981Z,995.84
2019-05-11T06:13:43.552Z,995.85
2019-05-11T06:14:26.013Z,995.80
2019-05-11T06:15:26.027Z,995.80
2019-05-11T06:16:26.035Z,995.81
2019-05-11T06:17:26.059Z,995.82
2019-05-11T06:18:26.070Z,995.85
2019-05-11T06:19:26.097Z,995.85
2019-05-11T06:20:26.110Z,995.88
2019-05-11T06:21:26.133Z,995.89
2019-05-11T06:22:26.139Z,995.92
2019-05-11T06:23:26.156Z,995.88
2019-05-11T06:24:26.178Z,995.91
2019-05-11T06:25:26.203Z,995.93
2019-05-11T06:26:26.204Z,995.90
2019-05-11T06:27:26.235Z,995.91
2019-05-11T06:28:26.247Z,995.94
2019-05-11T06:29:26.267Z,995.95
2019-05-11T06:30:26.274Z,995.97
2019-05-11T06:31:26.297Z,996.00
2019-05-11T06:32:26.314Z,996.03
2019-05-11T06:33:26.324Z,996.02
2019-05-11T06:34:26.344Z,996.00
2019-05-11T06:35:26.359Z,996.01
2019-05-11T06:36:26.375Z,996.04
2019-05-11T06:37:26.397Z,996.03
2019-05-11T06:38:26.413Z,996.04
2019-05-11T06:39:26.426Z,996.02
2019-05-11T06:40:28.543Z,996.07
2019-05-11T06:41:26.475Z,996.08
2019-05-11T06:42:26.517Z,996.07
2019-05-11T06:43:26.497Z,996.04
2019-05-11T06:44:26.514Z,996.04
2019-05-11T06:45:26.529Z,996.05
2019-05-11T06:46:26.550Z,996.08
2019-05-11T06:47:26.567Z,996.08
2019-05-11T06:48:26.585Z,996.11
2019-05-11T06:49:26.604Z,996.13
2019-05-11T06:50:26.616Z,996.13
2019-05-11T06:51:26.633Z,996.12
2019-05-11T06:52:26.647Z,996.16
2019-05-11T06:53:26.669Z,996.15
2019-05-11T06:54:26.683Z,996.15
2019-05-11T06:55:26.702Z,996.14
2019-05-11T06:56:26.778Z,996.10
2019-05-11T06:57:26.731Z,996.13
2019-05-11T06:58:26.753Z,996.12
2019-05-11T06:59:26.769Z,996.11
2019-05-11T07:00:26.782Z,996.09
2019-05-11T07:01:26.860Z,996.12
2019-05-11T07:02:26.816Z,996.07
2019-05-11T07:03:26.834Z,996.08
2019-05-11T07:04:26.855Z,996.06
2019-05-11T07:05:26.929Z,996.09
2019-05-11T07:06:30.368Z,996.06
2019-05-11T07:07:26.905Z,996.08
2019-05-11T07:08:26.933Z,996.09
2019-05-11T07:09:26.936Z,996.10
2019-05-11T07:10:26.958Z,996.14
2019-05-11T07:11:26.970Z,996.12
2019-05-11T07:12:27.789Z,996.09
2019-05-11T07:13:27.018Z,996.08
2019-05-11T07:14:27.022Z,996.10
2019-05-11T07:15:27.042Z,996.10
2019-05-11T07:16:27.057Z,996.10
2019-05-11T07:17:27.071Z,996.08
2019-05-11T07:18:27.093Z,996.12
2019-05-11T07:19:27.110Z,996.12
2019-05-11T07:20:27.123Z,996.09
2019-05-11T07:21:27.155Z,996.15
2019-05-11T07:22:27.161Z,996.13
2019-05-11T07:23:27.171Z,996.12
2019-05-11T07:24:27.190Z,996.17
2019-05-11T07:25:27.210Z,996.14
2019-05-11T07:26:27.229Z,996.17
2019-05-11T07:27:27.246Z,996.15
2019-05-11T07:28:27.261Z,996.19
2019-05-11T07:29:27.278Z,996.15
2019-05-11T07:30:27.295Z,996.18
2019-05-11T07:31:27.315Z,996.18
2019-05-11T07:32:29.385Z,996.21
2019-05-11T07:33:28.682Z,996.17
2019-05-11T07:34:27.831Z,996.17
2019-05-11T07:35:27.960Z,996.21
2019-05-11T07:36:28.253Z,996.19
2019-05-11T07:37:27.961Z,996.16
2019-05-11T07:38:27.972Z,996.17
2019-05-11T07:39:27.894Z,996.14
2019-05-11T07:40:28.005Z,996.12
2019-05-11T07:41:28.092Z,996.15
2019-05-11T07:42:28.608Z,996.13
2019-05-11T07:43:28.738Z,996.14
2019-05-11T07:44:37.568Z,996.19
2019-05-11T07:45:28.325Z,996.18
2019-05-11T07:46:28.721Z,996.20
2019-05-11T07:47:27.907Z,996.17
2019-05-11T07:48:28.019Z,996.19
2019-05-11T07:49:29.223Z,996.16
2019-05-11T07:50:28.353Z,996.18
2019-05-11T07:51:28.711Z,996.20
2019-05-11T07:52:28.758Z,996.19
2019-05-11T07:53:28.033Z,996.20
2019-05-11T07:54:28.208Z,996.21
2019-05-11T07:55:28.305Z,996.24
2019-05-11T07:56:28.497Z,996.25
2019-05-11T07:57:28.401Z,996.22
2019-05-11T07:58:28.500Z,996.24
2019-05-11T07:59:28.962Z,996.28
2019-05-11T08:00:28.149Z,996.26
2019-05-11T08:01:28.350Z,996.28
2019-05-11T08:02:29.240Z,996.34
2019-05-11T08:03:28.472Z,996.32
2019-05-11T08:04:28.758Z,996.31
2019-05-11T08:05:28.501Z,996.29
2019-05-11T08:06:28.623Z,996.32
2019-05-11T08:07:28.503Z,996.32
2019-05-11T08:08:28.432Z,996.38
2019-05-11T08:09:28.070Z,996.34
2019-05-11T08:10:28.261Z,996.36
2019-05-11T08:11:31.386Z,996.38
2019-05-11T08:12:28.616Z,996.36
2019-05-11T08:13:28.382Z,996.39
2019-05-11T08:14:28.822Z,996.38
2019-05-11T08:15:28.467Z,996.39
2019-05-11T08:16:28.735Z,996.43
2019-05-11T08:17:28.633Z,996.35
2019-05-11T08:18:28.410Z,996.40
2019-05-11T08:19:28.429Z,996.38
2019-05-11T08:20:28.266Z,996.39
2019-05-11T08:21:28.539Z,996.31
2019-05-11T08:22:28.547Z,996.38
2019-05-11T08:23:28.658Z,996.34
2019-05-11T08:24:28.566Z,996.37
2019-05-11T08:25:28.763Z,996.38
2019-05-11T08:26:28.502Z,996.42
2019-05-11T08:27:28.639Z,996.39
2019-05-11T08:28:28.859Z,996.40
2019-05-11T08:29:28.285Z,996.44
2019-05-11T08:30:28.302Z,996.44
2019-05-11T08:31:28.320Z,996.43
2019-05-11T08:32:28.800Z,996.44
2019-05-11T08:33:28.530Z,996.46
2019-05-11T08:34:28.706Z,996.52
2019-05-11T08:35:31.224Z,996.53
2019-05-11T08:36:29.021Z,996.51
2019-05-11T08:37:28.590Z,996.52
2019-05-11T08:38:28.658Z,996.50
2019-05-11T08:39:28.971Z,996.55
2019-05-11T08:40:28.984Z,996.52
2019-05-11T08:41:28.487Z,996.64
2019-05-11T08:42:29.036Z,996.61
2019-05-11T08:43:28.684Z,996.56
2019-05-11T08:44:28.858Z,996.70
2019-05-11T08:45:28.555Z,996.56
2019-05-11T08:46:28.570Z,996.60
2019-05-11T08:47:28.588Z,996.59
2019-05-11T08:48:28.605Z,996.60
2019-05-11T08:49:28.897Z,996.62
2019-05-11T08:50:28.650Z,996.59
2019-05-11T08:51:28.658Z,996.58
2019-05-11T08:52:28.670Z,996.57
2019-05-11T08:53:28.687Z,996.59
2019-05-11T08:54:28.993Z,996.62
2019-05-11T08:55:29.115Z,996.60
2019-05-11T08:56:29.008Z,996.63
2019-05-11T08:57:28.755Z,996.66
2019-05-11T08:58:28.791Z,996.67
2019-05-11T08:59:28.790Z,996.65
2019-05-11T09:00:28.806Z,996.65
2019-05-11T09:01:28.909Z,996.63
2019-05-11T09:02:28.852Z,996.63
2019-05-11T09:03:28.855Z,996.65
2019-05-11T09:04:29.071Z,996.70
2019-05-11T09:05:28.888Z,996.67
2019-05-11T09:06:28.908Z,996.76
2019-05-11T09:07:28.927Z,996.74
2019-05-11T09:08:28.947Z,996.76
2019-05-11T09:09:28.963Z,996.79
2019-05-11T09:10:28.972Z,996.77
2019-05-11T09:11:28.990Z,996.74
2019-05-11T09:12:29.057Z,996.79
2019-05-11T09:13:29.036Z,996.80
2019-05-11T09:14:29.039Z,996.78
2019-05-11T09:15:36.576Z,996.79
2019-05-11T09:16:29.225Z,996.81
2019-05-11T09:17:29.097Z,996.91
2019-05-11T09:18:29.111Z,996.86
2019-05-11T09:19:29.132Z,996.82
2019-05-11T09:20:29.145Z,996.84
2019-05-11T09:21:29.155Z,996.89
2019-05-11T09:22:29.180Z,996.91
2019-05-11T09:23:36.995Z,996.84
2019-05-11T09:24:29.230Z,996.89
2019-05-11T09:25:29.234Z,996.88
2019-05-11T09:26:29.265Z,996.85
2019-05-11T09:27:29.266Z,996.94
2019-05-11T09:28:29.605Z,996.95
2019-05-11T09:29:29.304Z,997.00
2019-05-11T09:30:29.312Z,996.97
2019-05-11T09:31:29.329Z,996.88
2019-05-11T09:32:29.347Z,996.92
2019-05-11T09:33:29.368Z,996.90
2019-05-11T09:34:29.381Z,996.86
2019-05-11T09:35:29.412Z,996.95
2019-05-11T09:36:29.454Z,996.90
2019-05-11T09:37:29.429Z,996.89
2019-05-11T09:38:29.449Z,996.92
2019-05-11T09:39:29.468Z,996.95
2019-05-11T09:40:29.488Z,997.05
2019-05-11T09:41:29.503Z,997.03
2019-05-11T09:42:29.516Z,997.03
2019-05-11T09:43:29.540Z,997.12
2019-05-11T09:44:29.547Z,997.04
2019-05-11T09:45:43.598Z,997.02
2019-05-11T09:46:29.586Z,997.05
2019-05-11T09:47:29.603Z,997.01
2019-05-11T09:48:29.622Z,997.06
2019-05-11T09:49:43.867Z,997.06
2019-05-11T09:50:29.662Z,997.00
2019-05-11T09:51:29.668Z,997.06
2019-05-11T09:52:32.396Z,997.07
2019-05-11T09:53:29.702Z,997.09
2019-05-11T09:54:29.746Z,997.10
2019-05-11T09:55:29.734Z,997.09
2019-05-11T09:56:29.750Z,997.12
2019-05-11T09:57:29.767Z,997.13
2019-05-11T09:58:29.788Z,997.14
2019-05-11T09:59:29.797Z,997.13
2019-05-11T10:00:29.819Z,997.12
2019-05-11T10:01:29.843Z,997.14
2019-05-11T10:02:29.851Z,997.17
2019-05-11T10:03:29.869Z,997.17
2019-05-11T10:04:29.885Z,997.22
2019-05-11T10:05:29.913Z,997.23
2019-05-11T10:06:29.921Z,997.20
2019-05-11T10:07:32.489Z,997.22
2019-05-11T10:08:29.980Z,997.31
2019-05-11T10:09:29.985Z,997.31
2019-05-11T10:10:30.114Z,997.30
2019-05-11T10:11:30.018Z,997.30
2019-05-11T10:12:30.025Z,997.27
2019-05-11T10:13:30.048Z,997.29
2019-05-11T10:14:30.054Z,997.28
2019-05-11T10:15:30.075Z,997.26
2019-05-11T10:16:30.085Z,997.31
2019-05-11T10:17:30.103Z,997.33
2019-05-11T10:18:30.120Z,997.38
2019-05-11T10:19:30.159Z,997.38
2019-05-11T10:20:30.153Z,997.45
2019-05-11T10:21:30.169Z,997.44
2019-05-11T10:22:30.190Z,997.51
2019-05-11T10:23:30.215Z,997.49
2019-05-11T10:24:30.222Z,997.61
2019-05-11T10:25:30.235Z,997.56
2019-05-11T10:26:30.259Z,997.53
2019-05-11T10:27:30.286Z,997.56
2019-05-11T10:28:30.306Z,997.61
2019-05-11T10:29:33.654Z,997.63
2019-05-11T10:30:30.334Z,997.57
2019-05-11T10:31:30.352Z,997.80
2019-05-11T10:32:30.373Z,997.59
2019-05-11T10:33:30.383Z,997.61
2019-05-11T10:34:30.389Z,997.63
2019-05-11T10:35:30.411Z,997.62
2019-05-11T10:36:30.421Z,997.66
2019-05-11T10:37:30.434Z,997.61
2019-05-11T10:38:30.454Z,997.59
2019-05-11T10:39:30.480Z,997.68
2019-05-11T10:40:30.490Z,997.67
2019-05-11T10:41:30.507Z,997.69
2019-05-11T10:42:30.525Z,997.74
2019-05-11T10:43:30.658Z,997.71
2019-05-11T10:44:30.557Z,997.67
2019-05-11T10:45:30.578Z,997.72
2019-05-11T10:46:30.589Z,997.67
2019-05-11T10:47:30.604Z,997.82
2019-05-11T10:48:30.620Z,997.71
2019-05-11T10:49:30.633Z,997.71
2019-05-11T10:50:30.658Z,997.73
2019-05-11T10:51:30.683Z,997.72
2019-05-11T10:52:30.694Z,997.71
2019-05-11T10:53:30.707Z,997.78
2019-05-11T10:54:30.725Z,997.71
2019-05-11T10:55:30.736Z,997.80
2019-05-11T10:56:30.759Z,997.72
2019-05-11T10:57:30.774Z,997.81
2019-05-11T10:58:30.789Z,997.81
2019-05-11T10:59:30.807Z,997.86
2019-05-11T11:00:30.821Z,997.84
2019-05-11T11:01:30.851Z,997.83
2019-05-11T11:02:30.855Z,997.84
2019-05-11T11:03:30.882Z,997.86
2019-05-11T11:04:30.901Z,997.83
2019-05-11T11:05:30.905Z,997.82
2019-05-11T11:06:30.925Z,997.88
2019-05-11T11:07:30.948Z,997.93
2019-05-11T11:08:30.959Z,997.94
2019-05-11T11:09:31.010Z,997.99
2019-05-11T11:10:31.006Z,998.00
2019-05-11T11:11:31.004Z,998.01
2019-05-11T11:12:31.019Z,997.98
2019-05-11T11:13:31.042Z,998.01
2019-05-11T11:14:31.059Z,998.05
2019-05-11T11:15:31.073Z,998.04
2019-05-11T11:16:38.761Z,998.01
2019-05-11T11:17:31.105Z,998.01
2019-05-11T11:18:31.128Z,998.05
2019-05-11T11:19:31.138Z,998.06
2019-05-11T11:20:31.159Z,998.14
2019-05-11T11:21:31.174Z,998.14
2019-05-11T11:22:39.371Z,998.18
2019-05-11T11:23:31.208Z,998.15
2019-05-11T11:24:31.224Z,998.17
2019-05-11T11:25:31.255Z,998.16
2019-05-11T11:26:31.266Z,998.15
2019-05-11T11:27:31.276Z,998.25
2019-05-11T11:28:31.295Z,998.17
2019-05-11T11:29:31.314Z,998.25
2019-05-11T11:30:31.330Z,998.28
2019-05-11T11:31:31.340Z,998.29
2019-05-11T11:32:31.357Z,998.23
2019-05-11T11:33:31.379Z,998.31
2019-05-11T11:34:31.543Z,998.28
2019-05-11T11:35:31.409Z,998.32
2019-05-11T11:36:31.425Z,998.36
2019-05-11T11:37:31.436Z,998.33
2019-05-11T11:38:31.465Z,998.35
2019-05-11T11:39:31.474Z,998.42
2019-05-11T11:40:31.499Z,998.41
2019-05-11T11:41:31.504Z,998.48
2019-05-11T11:42:31.524Z,998.40
2019-05-11T11:43:31.543Z,998.41
2019-05-11T11:44:31.594Z,998.49
2019-05-11T11:45:31.574Z,998.46
2019-05-11T11:46:31.592Z,998.46
2019-05-11T11:47:31.609Z,998.46
2019-05-11T11:48:31.655Z,998.49
2019-05-11T11:49:31.639Z,998.51
2019-05-11T11:50:31.661Z,998.46
2019-05-11T11:51:31.677Z,998.47
2019-05-11T11:52:31.697Z,998.55
2019-05-11T11:53:31.707Z,998.51
2019-05-11T11:54:31.722Z,998.52
2019-05-11T11:55:31.741Z,998.55
2019-05-11T11:56:31.759Z,998.58
2019-05-11T11:57:31.775Z,998.63
2019-05-11T11:58:31.792Z,998.59
2019-05-11T11:59:31.807Z,998.60
2019-05-11T12:00:31.826Z,998.62
2019-05-11T12:01:31.841Z,998.66
2019-05-11T12:02:31.857Z,998.71
2019-05-11T12:03:31.873Z,998.72
2019-05-11T12:04:31.887Z,998.78
2019-05-11T12:05:31.905Z,998.75
2019-05-11T12:06:31.934Z,998.76
2019-05-11T12:07:31.938Z,998.82
2019-05-11T12:08:31.957Z,998.86
2019-05-11T12:09:31.971Z,998.85
2019-05-11T12:10:31.988Z,998.89
2019-05-11T12:11:32.005Z,998.87
2019-05-11T12:12:32.021Z,998.84
2019-05-11T12:13:32.042Z,998.93
2019-05-11T12:14:32.058Z,998.89
2019-05-11T12:15:32.068Z,998.91
2019-05-11T12:16:32.082Z,998.95
2019-05-11T12:17:32.098Z,998.98
2019-05-11T12:18:32.119Z,998.94
2019-05-11T12:19:32.133Z,998.96
2019-05-11T12:20:32.152Z,998.93
2019-05-11T12:21:32.171Z,998.96
2019-05-11T12:22:32.184Z,998.96
2019-05-11T12:23:32.205Z,998.97
2019-05-11T12:24:32.215Z,998.96
2019-05-11T12:25:32.234Z,998.95
2019-05-11T12:26:32.296Z,999.01
2019-05-11T12:27:32.274Z,998.97
2019-05-11T12:28:32.284Z,999.00